Cantonment, FL

7:16 PM CST on December 22, 2014 (GMT -0600)
Pensacola Regional | Change Station
CLOSE
Current Station
Airport
Location: Pensacola,
Elevation: 118 ft
Nearby Weather Stations
Active Advisory: Flash Flood Watch

Elev 118 ft 30.48 °N, 87.19 °W | Updated 19 minutes ago

Mostly Cloudy
Mostly Cloudy
61 °F
Feels Like 61 °F
N
6
Wind Variable Wind from ESE

Today
High -- | Low -- °F
--% Chance of Precip.
Yesterday
High -- | Low -- °F
Precip. -- in
6:43 AM 4:52 PM
New Moon, 1% visible
Pressure 29.79 in
Visibility 0.8 miles
Clouds Mostly Cloudy 800 ft
Mostly Cloudy 7000 ft
Dew Point 61 °F
Humidity 100%
Rainfall 0.12 in
Snow Depth Not available.
UV 0 out of 12
Pollen 2.00 out of 12
Air Quality Not available.
Flu Activity Not available.
SPECI KPNS 230057Z 11005KT 3/4SM R17/P6000FT BR BKN008 BKN070 16/16 A2979 RMK AO2 T01610161

More Conditions Fewer Conditions

Pressure 29.79 in
Visibility 0.8 miles
Clouds Mostly Cloudy 800 ft
Mostly Cloudy 7000 ft
Dew Point 61 °F
Humidity 100%
Rainfall 0.12 in
Snow Depth Not available.
UV 0 out of 12
Pollen 2.00 out of 12
Air Quality Not available.
Flu Activity Not available.
SPECI KPNS 230057Z 11005KT 3/4SM R17/P6000FT BR BKN008 BKN070 16/16 A2979 RMK AO2 T01610161

More Conditions Fewer Conditions

10-Day Weather Forecast

Almanac

Astronomy

Dec. 22, 2014 Rise Set
Actual Time
Civil Twilight
Nautical Twilight
Astronomical Twilight
Moon
Length of Visible Light
Length of Day
Tomorrow will be .
, % of the Moon is Illuminated

Today's Extremes

State Highs State Lows

Community

WunderPhotos

Upload Photos

1,779,745 photos uploaded!

WunderBlogs® & News

Nearby

Air Quality

  Air Quality AQ Index Pollutant
Not available.

Snow Depth

Station Depth Elevation

Earthquake Activity

City Distance Mag. Time & Date
Minimum magnitude displayed is 2.5.

Coastal Water Temperatures

Place Temperature

Nearby Weather Stations